sensor_id;sensor_type;location;lat;lon;timestamp;pressure;altitude;pressure_sealevel;temperature;humidity
46392;BME280;32098;49.448;7.904;2024-02-28T00:02:02;98303.78;;;3.46;79.57
46392;BME280;32098;49.448;7.904;2024-02-28T00:04:29;98301.34;;;3.36;78.85
46392;BME280;32098;49.448;7.904;2024-02-28T00:06:55;98309.09;;;3.30;78.87
46392;BME280;32098;49.448;7.904;2024-02-28T00:09:22;98305.66;;;3.21;81.00
46392;BME280;32098;49.448;7.904;2024-02-28T00:11:49;98303.06;;;3.13;82.45
46392;BME280;32098;49.448;7.904;2024-02-28T00:14:15;98315.19;;;3.30;82.12
46392;BME280;32098;49.448;7.904;2024-02-28T00:16:43;98295.63;;;3.25;81.35
46392;BME280;32098;49.448;7.904;2024-02-28T00:19:12;98300.75;;;3.18;81.25
46392;BME280;32098;49.448;7.904;2024-02-28T00:21:39;98302.56;;;3.18;80.98
46392;BME280;32098;49.448;7.904;2024-02-28T00:24:07;98306.81;;;3.19;80.37
46392;BME280;32098;49.448;7.904;2024-02-28T00:26:34;98298.13;;;3.18;81.16
46392;BME280;32098;49.448;7.904;2024-02-28T00:29:01;98302.22;;;3.21;80.30
46392;BME280;32098;49.448;7.904;2024-02-28T00:31:28;98301.91;;;3.16;80.33
46392;BME280;32098;49.448;7.904;2024-02-28T00:33:55;98299.44;;;3.06;79.42
46392;BME280;32098;49.448;7.904;2024-02-28T00:36:22;98307.50;;;2.97;78.35
46392;BME280;32098;49.448;7.904;2024-02-28T00:38:49;98315.59;;;2.95;76.92
46392;BME280;32098;49.448;7.904;2024-02-28T00:41:15;98324.81;;;2.75;78.42
46392;BME280;32098;49.448;7.904;2024-02-28T00:43:42;98312.00;;;2.48;80.43
46392;BME280;32098;49.448;7.904;2024-02-28T00:46:09;98324.13;;;2.41;81.04
46392;BME280;32098;49.448;7.904;2024-02-28T00:48:41;98332.00;;;2.33;81.52
46392;BME280;32098;49.448;7.904;2024-02-28T00:51:08;98328.06;;;2.45;80.67
46392;BME280;32098;49.448;7.904;2024-02-28T00:53:35;98324.47;;;2.54;81.47
46392;BME280;32098;49.448;7.904;2024-02-28T00:56:02;98333.16;;;2.54;79.80
46392;BME280;32098;49.448;7.904;2024-02-28T00:58:28;98333.00;;;2.48;78.98
46392;BME280;32098;49.448;7.904;2024-02-28T01:00:56;98341.84;;;2.31;80.08
46392;BME280;32098;49.448;7.904;2024-02-28T01:03:23;98332.97;;;2.23;79.98
46392;BME280;32098;49.448;7.904;2024-02-28T01:05:50;98337.25;;;2.24;80.14
46392;BME280;32098;49.448;7.904;2024-02-28T01:08:17;98345.13;;;2.33;80.49
46392;BME280;32098;49.448;7.904;2024-02-28T01:10:44;98339.22;;;2.39;80.33
46392;BME280;32098;49.448;7.904;2024-02-28T01:13:11;98332.03;;;2.41;79.60
46392;BME280;32098;49.448;7.904;2024-02-28T01:15:40;98334.78;;;2.39;80.54
46392;BME280;32098;49.448;7.904;2024-02-28T01:18:10;98339.22;;;2.39;80.70
46392;BME280;32098;49.448;7.904;2024-02-28T01:20:37;98339.41;;;2.45;80.30
46392;BME280;32098;49.448;7.904;2024-02-28T01:23:04;98290.94;;;2.32;80.34
46392;BME280;32098;49.448;7.904;2024-02-28T01:25:31;98340.56;;;2.59;80.51
46392;BME280;32098;49.448;7.904;2024-02-28T01:27:57;98343.69;;;2.54;80.25
46392;BME280;32098;49.448;7.904;2024-02-28T01:30:25;98347.13;;;2.47;80.69
46392;BME280;32098;49.448;7.904;2024-02-28T01:32:52;98345.97;;;2.49;80.78
46392;BME280;32098;49.448;7.904;2024-02-28T01:35:19;98340.88;;;2.56;81.33
46392;BME280;32098;49.448;7.904;2024-02-28T01:37:46;98338.94;;;2.58;81.27
46392;BME280;32098;49.448;7.904;2024-02-28T01:40:30;98350.09;;;2.68;81.59
46392;BME280;32098;49.448;7.904;2024-02-28T01:43:07;98354.53;;;2.67;82.45
46392;BME280;32098;49.448;7.904;2024-02-28T01:45:34;98354.03;;;2.72;82.54
46392;BME280;32098;49.448;7.904;2024-02-28T01:48:01;98361.91;;;2.72;82.19
46392;BME280;32098;49.448;7.904;2024-02-28T01:50:28;98359.47;;;2.70;81.44
46392;BME280;32098;49.448;7.904;2024-02-28T01:52:55;98352.88;;;2.66;80.99
46392;BME280;32098;49.448;7.904;2024-02-28T01:55:22;98363.22;;;2.60;80.97
46392;BME280;32098;49.448;7.904;2024-02-28T01:57:51;98338.91;;;2.50;81.58
46392;BME280;32098;49.448;7.904;2024-02-28T02:00:18;98358.63;;;2.70;81.45
46392;BME280;32098;49.448;7.904;2024-02-28T02:02:45;98359.28;;;2.64;82.23
46392;BME280;32098;49.448;7.904;2024-02-28T02:05:12;98362.75;;;2.72;82.58
46392;BME280;32098;49.448;7.904;2024-02-28T02:07:42;98360.91;;;2.49;82.63
46392;BME280;32098;49.448;7.904;2024-02-28T02:10:09;98357.78;;;2.37;83.54
46392;BME280;32098;49.448;7.904;2024-02-28T02:12:38;98347.25;;;2.13;83.76
46392;BME280;32098;49.448;7.904;2024-02-28T02:15:05;98363.50;;;2.24;84.31
46392;BME280;32098;49.448;7.904;2024-02-28T02:17:32;98359.91;;;2.26;84.63
46392;BME280;32098;49.448;7.904;2024-02-28T02:19:59;98356.59;;;2.15;84.28
46392;BME280;32098;49.448;7.904;2024-02-28T02:22:32;98356.28;;;2.27;84.76
46392;BME280;32098;49.448;7.904;2024-02-28T02:24:59;98364.47;;;2.23;84.38
46392;BME280;32098;49.448;7.904;2024-02-28T02:27:26;98371.09;;;2.36;84.34
46392;BME280;32098;49.448;7.904;2024-02-28T02:29:52;98364.19;;;2.35;84.33
46392;BME280;32098;49.448;7.904;2024-02-28T02:32:19;98376.00;;;2.31;84.21
46392;BME280;32098;49.448;7.904;2024-02-28T02:34:46;98373.88;;;2.42;83.59
46392;BME280;32098;49.448;7.904;2024-02-28T02:37:12;98374.50;;;2.36;84.22
46392;BME280;32098;49.448;7.904;2024-02-28T02:39:39;98378.47;;;2.40;84.23
46392;BME280;32098;49.448;7.904;2024-02-28T02:42:06;98381.78;;;2.58;83.71
46392;BME280;32098;49.448;7.904;2024-02-28T02:44:33;98364.53;;;2.56;83.24
46392;BME280;32098;49.448;7.904;2024-02-28T02:47:00;98379.16;;;2.50;83.96
46392;BME280;32098;49.448;7.904;2024-02-28T02:49:27;98386.03;;;2.43;83.68
46392;BME280;32098;49.448;7.904;2024-02-28T02:51:53;98381.41;;;2.37;84.36
46392;BME280;32098;49.448;7.904;2024-02-28T02:54:20;98383.06;;;2.46;84.53
46392;BME280;32098;49.448;7.904;2024-02-28T02:56:47;98386.03;;;2.35;84.42
46392;BME280;32098;49.448;7.904;2024-02-28T02:59:13;98383.53;;;2.34;85.29
46392;BME280;32098;49.448;7.904;2024-02-28T03:01:40;98388.16;;;2.40;85.53
46392;BME280;32098;49.448;7.904;2024-02-28T03:04:07;98389.31;;;2.37;85.64
46392;BME280;32098;49.448;7.904;2024-02-28T03:06:33;98388.78;;;2.34;86.12
46392;BME280;32098;49.448;7.904;2024-02-28T03:09:00;98391.59;;;2.32;86.39
46392;BME280;32098;49.448;7.904;2024-02-28T03:11:27;98393.03;;;2.27;86.16
46392;BME280;32098;49.448;7.904;2024-02-28T03:13:53;98352.59;;;1.95;87.11
46392;BME280;32098;49.448;7.904;2024-02-28T03:16:20;98403.25;;;2.30;86.66
46392;BME280;32098;49.448;7.904;2024-02-28T03:18:47;98399.56;;;2.14;86.54
46392;BME280;32098;49.448;7.904;2024-02-28T03:21:14;98396.25;;;2.04;87.46
46392;BME280;32098;49.448;7.904;2024-02-28T03:23:40;98398.88;;;2.04;87.27
46392;BME280;32098;49.448;7.904;2024-02-28T03:26:07;98406.09;;;2.02;88.23
46392;BME280;32098;49.448;7.904;2024-02-28T03:28:33;98400.84;;;2.02;90.09
46392;BME280;32098;49.448;7.904;2024-02-28T03:31:00;98397.91;;;2.13;89.42
46392;BME280;32098;49.448;7.904;2024-02-28T03:33:26;98401.72;;;2.19;89.79
46392;BME280;32098;49.448;7.904;2024-02-28T03:35:53;98407.81;;;2.19;89.38
46392;BME280;32098;49.448;7.904;2024-02-28T03:38:20;98401.56;;;2.29;90.40
46392;BME280;32098;49.448;7.904;2024-02-28T03:40:46;98387.78;;;2.27;90.17
46392;BME280;32098;49.448;7.904;2024-02-28T03:43:13;98405.84;;;2.30;90.18
46392;BME280;32098;49.448;7.904;2024-02-28T03:45:40;98398.50;;;2.33;90.53
46392;BME280;32098;49.448;7.904;2024-02-28T03:48:07;98404.88;;;2.39;90.13
46392;BME280;32098;49.448;7.904;2024-02-28T03:50:34;98412.31;;;2.43;89.81
46392;BME280;32098;49.448;7.904;2024-02-28T03:53:00;98410.13;;;2.22;88.48
46392;BME280;32098;49.448;7.904;2024-02-28T03:55:27;98418.47;;;2.26;89.38
46392;BME280;32098;49.448;7.904;2024-02-28T03:57:53;98423.72;;;2.26;89.40
46392;BME280;32098;49.448;7.904;2024-02-28T04:00:20;98424.31;;;2.04;88.75
46392;BME280;32098;49.448;7.904;2024-02-28T04:02:47;98429.94;;;2.17;87.92
46392;BME280;32098;49.448;7.904;2024-02-28T04:05:14;98428.81;;;2.19;88.17
46392;BME280;32098;49.448;7.904;2024-02-28T04:07:40;98436.50;;;2.21;88.45
46392;BME280;32098;49.448;7.904;2024-02-28T04:10:07;98441.97;;;2.28;88.18
46392;BME280;32098;49.448;7.904;2024-02-28T04:12:34;98443.59;;;2.29;88.24
46392;BME280;32098;49.448;7.904;2024-02-28T04:15:01;98416.47;;;2.12;87.77
46392;BME280;32098;49.448;7.904;2024-02-28T04:17:27;98450.50;;;2.30;87.66
46392;BME280;32098;49.448;7.904;2024-02-28T04:19:54;98440.97;;;2.20;87.88
46392;BME280;32098;49.448;7.904;2024-02-28T04:22:24;98446.22;;;2.20;87.83
46392;BME280;32098;49.448;7.904;2024-02-28T04:24:50;98442.81;;;2.28;87.49
46392;BME280;32098;49.448;7.904;2024-02-28T04:27:17;98448.88;;;2.37;88.05
46392;BME280;32098;49.448;7.904;2024-02-28T04:29:43;98453.31;;;2.36;87.56
46392;BME280;32098;49.448;7.904;2024-02-28T04:32:10;98451.03;;;2.33;87.09
46392;BME280;32098;49.448;7.904;2024-02-28T04:34:37;98452.81;;;2.33;86.97
46392;BME280;32098;49.448;7.904;2024-02-28T04:37:03;98451.13;;;2.23;85.47
46392;BME280;32098;49.448;7.904;2024-02-28T04:39:30;98469.53;;;2.23;85.66
46392;BME280;32098;49.448;7.904;2024-02-28T04:41:57;98470.13;;;2.09;85.59
46392;BME280;32098;49.448;7.904;2024-02-28T04:44:24;98471.38;;;1.97;85.74
46392;BME280;32098;49.448;7.904;2024-02-28T04:46:51;98479.22;;;1.89;87.03
46392;BME280;32098;49.448;7.904;2024-02-28T04:49:17;98481.22;;;1.95;87.56
46392;BME280;32098;49.448;7.904;2024-02-28T04:51:44;98477.66;;;2.04;87.81
46392;BME280;32098;49.448;7.904;2024-02-28T04:54:11;98464.47;;;1.96;88.89
46392;BME280;32098;49.448;7.904;2024-02-28T04:56:41;98482.59;;;2.07;88.58
46392;BME280;32098;49.448;7.904;2024-02-28T04:59:09;98489.34;;;2.10;87.70
46392;BME280;32098;49.448;7.904;2024-02-28T05:01:37;98486.72;;;2.10;86.96
46392;BME280;32098;49.448;7.904;2024-02-28T05:04:06;98492.94;;;2.09;87.24
46392;BME280;32098;49.448;7.904;2024-02-28T05:06:33;98497.09;;;2.19;87.79
46392;BME280;32098;49.448;7.904;2024-02-28T05:09:04;98500.09;;;1.99;87.06
46392;BME280;32098;49.448;7.904;2024-02-28T05:11:31;98462.19;;;1.68;86.80
46392;BME280;32098;49.448;7.904;2024-02-28T05:13:58;98495.50;;;2.01;87.79
46392;BME280;32098;49.448;7.904;2024-02-28T05:16:25;98496.69;;;2.06;87.28
46392;BME280;32098;49.448;7.904;2024-02-28T05:18:51;98500.31;;;2.05;86.92
46392;BME280;32098;49.448;7.904;2024-02-28T05:21:18;98498.34;;;2.07;87.18
46392;BME280;32098;49.448;7.904;2024-02-28T05:23:45;98497.69;;;2.13;87.44
46392;BME280;32098;49.448;7.904;2024-02-28T05:26:11;98509.88;;;2.14;87.40
46392;BME280;32098;49.448;7.904;2024-02-28T05:28:38;98505.75;;;2.12;87.50
46392;BME280;32098;49.448;7.904;2024-02-28T05:31:23;98514.16;;;2.23;87.79
46392;BME280;32098;49.448;7.904;2024-02-28T05:33:51;98512.69;;;2.21;87.39
46392;BME280;32098;49.448;7.904;2024-02-28T05:36:18;98517.47;;;2.26;87.55
46392;BME280;32098;49.448;7.904;2024-02-28T05:38:45;98511.22;;;2.27;87.30
46392;BME280;32098;49.448;7.904;2024-02-28T05:41:12;98523.19;;;2.21;87.26
46392;BME280;32098;49.448;7.904;2024-02-28T05:43:40;98525.31;;;2.17;87.33
46392;BME280;32098;49.448;7.904;2024-02-28T05:46:07;98522.47;;;2.11;87.46
46392;BME280;32098;49.448;7.904;2024-02-28T05:48:33;98522.34;;;2.12;87.89
46392;BME280;32098;49.448;7.904;2024-02-28T05:51:01;98517.75;;;2.14;88.52
46392;BME280;32098;49.448;7.904;2024-02-28T05:53:28;98526.22;;;2.08;87.56
46392;BME280;32098;49.448;7.904;2024-02-28T05:55:58;98527.69;;;2.03;87.84
46392;BME280;32098;49.448;7.904;2024-02-28T05:58:25;98483.44;;;1.56;88.48
46392;BME280;32098;49.448;7.904;2024-02-28T06:00:52;98537.06;;;1.80;89.78
46392;BME280;32098;49.448;7.904;2024-02-28T06:03:18;98541.19;;;1.82;90.64
46392;BME280;32098;49.448;7.904;2024-02-28T06:05:46;98545.78;;;1.88;90.90
46392;BME280;32098;49.448;7.904;2024-02-28T06:08:13;98536.06;;;1.81;90.99
46392;BME280;32098;49.448;7.904;2024-02-28T06:10:40;98541.69;;;1.86;91.74
46392;BME280;32098;49.448;7.904;2024-02-28T06:13:08;98546.50;;;1.98;92.02
46392;BME280;32098;49.448;7.904;2024-02-28T06:15:35;98547.56;;;2.05;92.26
46392;BME280;32098;49.448;7.904;2024-02-28T06:18:02;98558.25;;;2.12;92.42
46392;BME280;32098;49.448;7.904;2024-02-28T06:20:29;98570.63;;;2.19;92.00
46392;BME280;32098;49.448;7.904;2024-02-28T06:22:55;98564.75;;;2.26;91.99
46392;BME280;32098;49.448;7.904;2024-02-28T06:25:22;98578.56;;;2.28;91.49
46392;BME280;32098;49.448;7.904;2024-02-28T06:27:50;98576.41;;;2.23;91.48
46392;BME280;32098;49.448;7.904;2024-02-28T06:30:17;98580.03;;;2.30;91.03
46392;BME280;32098;49.448;7.904;2024-02-28T06:32:44;98576.94;;;2.35;90.61
46392;BME280;32098;49.448;7.904;2024-02-28T06:35:10;98580.88;;;2.39;90.28
46392;BME280;32098;49.448;7.904;2024-02-28T06:37:37;98590.59;;;2.38;90.06
46392;BME280;32098;49.448;7.904;2024-02-28T06:40:05;98594.19;;;2.37;90.87
46392;BME280;32098;49.448;7.904;2024-02-28T06:42:31;98602.13;;;2.45;90.88
46392;BME280;32098;49.448;7.904;2024-02-28T06:44:58;98610.66;;;2.47;91.30
46392;BME280;32098;49.448;7.904;2024-02-28T06:47:24;98608.19;;;2.46;90.72
46392;BME280;32098;49.448;7.904;2024-02-28T06:49:51;98608.88;;;2.48;90.41
46392;BME280;32098;49.448;7.904;2024-02-28T06:52:18;98608.03;;;2.47;90.57
46392;BME280;32098;49.448;7.904;2024-02-28T06:54:45;98609.06;;;2.54;90.57
46392;BME280;32098;49.448;7.904;2024-02-28T06:57:11;98614.47;;;2.53;90.70
46392;BME280;32098;49.448;7.904;2024-02-28T06:59:39;98624.66;;;2.56;91.36
46392;BME280;32098;49.448;7.904;2024-02-28T07:02:05;98617.38;;;2.42;89.68
46392;BME280;32098;49.448;7.904;2024-02-28T07:04:32;98616.59;;;2.49;90.84
46392;BME280;32098;49.448;7.904;2024-02-28T07:06:58;98623.84;;;2.55;92.26
46392;BME280;32098;49.448;7.904;2024-02-28T07:09:25;98620.44;;;2.63;92.28
46392;BME280;32098;49.448;7.904;2024-02-28T07:11:56;98625.88;;;2.69;92.33
46392;BME280;32098;49.448;7.904;2024-02-28T07:14:22;98619.19;;;2.75;92.26
46392;BME280;32098;49.448;7.904;2024-02-28T07:16:49;98627.72;;;2.77;92.29
46392;BME280;32098;49.448;7.904;2024-02-28T07:19:18;98620.84;;;2.84;91.50
46392;BME280;32098;49.448;7.904;2024-02-28T07:21:44;98606.09;;;2.83;90.84
46392;BME280;32098;49.448;7.904;2024-02-28T07:24:11;98607.41;;;2.87;90.30
46392;BME280;32098;49.448;7.904;2024-02-28T07:26:39;98615.59;;;2.84;90.14
46392;BME280;32098;49.448;7.904;2024-02-28T07:29:07;98617.75;;;2.80;90.52
46392;BME280;32098;49.448;7.904;2024-02-28T07:31:33;98630.09;;;2.88;91.10
46392;BME280;32098;49.448;7.904;2024-02-28T07:34:00;98620.59;;;2.95;91.20
46392;BME280;32098;49.448;7.904;2024-02-28T07:36:27;98628.31;;;2.97;90.84
46392;BME280;32098;49.448;7.904;2024-02-28T07:38:53;98636.72;;;3.00;90.92
46392;BME280;32098;49.448;7.904;2024-02-28T07:41:20;98628.16;;;3.06;90.81
46392;BME280;32098;49.448;7.904;2024-02-28T07:43:46;98632.03;;;2.86;88.61
46392;BME280;32098;49.448;7.904;2024-02-28T07:46:13;98624.78;;;2.80;87.74
46392;BME280;32098;49.448;7.904;2024-02-28T07:48:40;98624.16;;;2.86;88.69
46392;BME280;32098;49.448;7.904;2024-02-28T07:51:08;98627.13;;;2.91;90.16
46392;BME280;32098;49.448;7.904;2024-02-28T07:53:34;98629.59;;;2.93;89.67
46392;BME280;32098;49.448;7.904;2024-02-28T07:56:01;98628.47;;;2.95;89.46
46392;BME280;32098;49.448;7.904;2024-02-28T07:58:28;98627.69;;;3.03;89.47
46392;BME280;32098;49.448;7.904;2024-02-28T08:00:54;98635.34;;;2.88;88.02
46392;BME280;32098;49.448;7.904;2024-02-28T08:03:21;98644.88;;;2.89;88.64
46392;BME280;32098;49.448;7.904;2024-02-28T08:05:48;98642.00;;;2.74;87.49
46392;BME280;32098;49.448;7.904;2024-02-28T08:08:15;98633.97;;;2.76;87.28
46392;BME280;32098;49.448;7.904;2024-02-28T08:10:42;98643.31;;;2.70;88.26
46392;BME280;32098;49.448;7.904;2024-02-28T08:13:09;98640.69;;;2.70;88.84
46392;BME280;32098;49.448;7.904;2024-02-28T08:15:35;98638.16;;;2.61;88.59
46392;BME280;32098;49.448;7.904;2024-02-28T08:18:02;98615.56;;;2.42;88.08
46392;BME280;32098;49.448;7.904;2024-02-28T08:20:29;98643.63;;;2.42;88.77
46392;BME280;32098;49.448;7.904;2024-02-28T08:22:55;98641.06;;;2.50;90.38
46392;BME280;32098;49.448;7.904;2024-02-28T08:25:23;98639.94;;;2.52;90.39
46392;BME280;32098;49.448;7.904;2024-02-28T08:27:50;98647.03;;;2.60;90.69
46392;BME280;32098;49.448;7.904;2024-02-28T08:30:17;98652.66;;;2.65;90.51
46392;BME280;32098;49.448;7.904;2024-02-28T08:32:43;98649.41;;;2.79;91.54
46392;BME280;32098;49.448;7.904;2024-02-28T08:35:10;98651.31;;;2.95;91.36
46392;BME280;32098;49.448;7.904;2024-02-28T08:37:40;98635.66;;;2.85;91.04
46392;BME280;32098;49.448;7.904;2024-02-28T08:40:07;98661.22;;;3.09;91.44
46392;BME280;32098;49.448;7.904;2024-02-28T08:42:35;98663.41;;;3.21;91.37
46392;BME280;32098;49.448;7.904;2024-02-28T08:45:01;98663.59;;;3.28;90.84
46392;BME280;32098;49.448;7.904;2024-02-28T08:47:30;98658.84;;;3.39;90.24
46392;BME280;32098;49.448;7.904;2024-02-28T08:49:56;98659.19;;;3.44;89.26
46392;BME280;32098;49.448;7.904;2024-02-28T08:52:23;98666.28;;;3.52;88.86
46392;BME280;32098;49.448;7.904;2024-02-28T08:54:49;98666.13;;;3.62;88.36
46392;BME280;32098;49.448;7.904;2024-02-28T08:57:16;98666.09;;;3.53;86.87
46392;BME280;32098;49.448;7.904;2024-02-28T08:59:43;98671.22;;;3.55;86.97
46392;BME280;32098;49.448;7.904;2024-02-28T09:02:09;98675.31;;;3.49;86.29
46392;BME280;32098;49.448;7.904;2024-02-28T09:04:37;98667.72;;;3.30;86.50
46392;BME280;32098;49.448;7.904;2024-02-28T09:07:04;98679.44;;;3.02;85.73
46392;BME280;32098;49.448;7.904;2024-02-28T09:09:31;98683.38;;;3.06;87.03
46392;BME280;32098;49.448;7.904;2024-02-28T09:12:00;98679.13;;;3.05;88.20
46392;BME280;32098;49.448;7.904;2024-02-28T09:14:29;98691.22;;;2.90;88.83
46392;BME280;32098;49.448;7.904;2024-02-28T09:16:56;98697.44;;;2.89;89.64
46392;BME280;32098;49.448;7.904;2024-02-28T09:19:30;98701.34;;;2.77;89.26
46392;BME280;32098;49.448;7.904;2024-02-28T09:21:57;98659.88;;;2.63;90.50
46392;BME280;32098;49.448;7.904;2024-02-28T09:24:24;98714.03;;;3.15;91.20
46392;BME280;32098;49.448;7.904;2024-02-28T09:26:51;98723.94;;;3.29;91.49
46392;BME280;32098;49.448;7.904;2024-02-28T09:29:18;98720.06;;;3.49;91.01
46392;BME280;32098;49.448;7.904;2024-02-28T09:31:44;98733.59;;;3.63;90.03
46392;BME280;32098;49.448;7.904;2024-02-28T09:34:11;98727.34;;;3.72;88.93
46392;BME280;32098;49.448;7.904;2024-02-28T09:36:45;98728.97;;;3.57;87.48
46392;BME280;32098;49.448;7.904;2024-02-28T09:39:16;98722.25;;;3.20;88.05
46392;BME280;32098;49.448;7.904;2024-02-28T09:41:43;98722.88;;;3.14;89.28
46392;BME280;32098;49.448;7.904;2024-02-28T09:44:14;98725.03;;;3.11;90.07
46392;BME280;32098;49.448;7.904;2024-02-28T09:46:41;98720.81;;;2.92;88.30
46392;BME280;32098;49.448;7.904;2024-02-28T09:49:09;98723.19;;;3.03;88.86
46392;BME280;32098;49.448;7.904;2024-02-28T09:51:37;98725.81;;;3.11;88.67
46392;BME280;32098;49.448;7.904;2024-02-28T09:54:03;98720.59;;;3.19;88.73
46392;BME280;32098;49.448;7.904;2024-02-28T09:56:32;98726.44;;;3.39;89.25
46392;BME280;32098;49.448;7.904;2024-02-28T09:58:59;98718.50;;;3.73;90.30
46392;BME280;32098;49.448;7.904;2024-02-28T10:01:26;98717.22;;;4.09;89.77
46392;BME280;32098;49.448;7.904;2024-02-28T10:03:54;98718.53;;;4.29;87.31
46392;BME280;32098;49.448;7.904;2024-02-28T10:06:21;98724.78;;;4.44;85.52
46392;BME280;32098;49.448;7.904;2024-02-28T10:08:47;98701.41;;;4.49;84.79
46392;BME280;32098;49.448;7.904;2024-02-28T10:11:23;98720.81;;;4.64;83.66
46392;BME280;32098;49.448;7.904;2024-02-28T10:13:52;98723.13;;;4.83;84.05
46392;BME280;32098;49.448;7.904;2024-02-28T10:16:19;98725.44;;;4.70;83.44
46392;BME280;32098;49.448;7.904;2024-02-28T10:18:45;98737.31;;;4.91;83.68
46392;BME280;32098;49.448;7.904;2024-02-28T10:21:12;98728.56;;;4.90;83.99
46392;BME280;32098;49.448;7.904;2024-02-28T10:23:41;98740.59;;;4.68;81.99
46392;BME280;32098;49.448;7.904;2024-02-28T10:26:12;98742.91;;;4.96;82.78
46392;BME280;32098;49.448;7.904;2024-02-28T10:28:40;98736.59;;;5.05;83.34
46392;BME280;32098;49.448;7.904;2024-02-28T10:31:06;98735.88;;;5.19;82.06
46392;BME280;32098;49.448;7.904;2024-02-28T10:33:38;98742.47;;;5.31;81.49
46392;BME280;32098;49.448;7.904;2024-02-28T10:36:05;98744.56;;;5.43;80.69
46392;BME280;32098;49.448;7.904;2024-02-28T10:38:34;98752.00;;;5.40;79.85
46392;BME280;32098;49.448;7.904;2024-02-28T10:41:00;98749.97;;;5.50;81.00
46392;BME280;32098;49.448;7.904;2024-02-28T10:43:29;98754.50;;;5.64;82.31
46392;BME280;32098;49.448;7.904;2024-02-28T10:45:59;98759.09;;;5.78;82.28
46392;BME280;32098;49.448;7.904;2024-02-28T10:48:45;98751.94;;;5.56;81.42
46392;BME280;32098;49.448;7.904;2024-02-28T10:51:15;98750.09;;;5.87;81.48
46392;BME280;32098;49.448;7.904;2024-02-28T10:53:49;98747.97;;;6.14;80.20
46392;BME280;32098;49.448;7.904;2024-02-28T10:56:18;98748.47;;;6.32;79.57
46392;BME280;32098;49.448;7.904;2024-02-28T10:58:51;98725.44;;;6.40;77.94
46392;BME280;32098;49.448;7.904;2024-02-28T11:01:19;98735.94;;;6.71;76.42
46392;BME280;32098;49.448;7.904;2024-02-28T11:03:48;98743.91;;;7.00;76.78
46392;BME280;32098;49.448;7.904;2024-02-28T11:06:21;98738.84;;;7.28;76.76
46392;BME280;32098;49.448;7.904;2024-02-28T11:08:49;98743.19;;;7.65;75.86
46392;BME280;32098;49.448;7.904;2024-02-28T11:11:21;98747.00;;;7.77;74.02
46392;BME280;32098;49.448;7.904;2024-02-28T11:13:53;98745.03;;;7.50;72.69
46392;BME280;32098;49.448;7.904;2024-02-28T11:18:53;98733.03;;;7.68;72.96
46392;BME280;32098;49.448;7.904;2024-02-28T11:21:23;98731.44;;;7.88;72.18
46392;BME280;32098;49.448;7.904;2024-02-28T11:23:51;98728.03;;;7.94;70.90
46392;BME280;32098;49.448;7.904;2024-02-28T11:26:18;98730.13;;;7.99;70.71
46392;BME280;32098;49.448;7.904;2024-02-28T11:28:47;98735.06;;;8.23;71.61
46392;BME280;32098;49.448;7.904;2024-02-28T11:31:14;98731.66;;;8.29;70.70
46392;BME280;32098;49.448;7.904;2024-02-28T11:33:41;98731.66;;;8.29;70.51
46392;BME280;32098;49.448;7.904;2024-02-28T11:36:11;98728.63;;;8.53;70.58
46392;BME280;32098;49.448;7.904;2024-02-28T11:38:39;98726.44;;;8.63;69.85
46392;BME280;32098;49.448;7.904;2024-02-28T11:41:06;98713.84;;;8.44;69.88
46392;BME280;32098;49.448;7.904;2024-02-28T11:43:33;98708.34;;;8.25;67.92
46392;BME280;32098;49.448;7.904;2024-02-28T11:46:17;98709.16;;;8.25;68.44
46392;BME280;32098;49.448;7.904;2024-02-28T11:48:45;98675.31;;;8.27;68.94
46392;BME280;32098;49.448;7.904;2024-02-28T11:51:13;98705.22;;;8.63;69.77
46392;BME280;32098;49.448;7.904;2024-02-28T11:53:39;98708.78;;;8.77;69.40
46392;BME280;32098;49.448;7.904;2024-02-28T11:56:07;98690.41;;;8.76;68.10
46392;BME280;32098;49.448;7.904;2024-02-28T11:58:35;98705.47;;;8.68;67.92
46392;BME280;32098;49.448;7.904;2024-02-28T12:01:35;98703.41;;;8.64;67.14
46392;BME280;32098;49.448;7.904;2024-02-28T12:04:05;98704.78;;;8.88;67.55
46392;BME280;32098;49.448;7.904;2024-02-28T12:06:36;98691.00;;;9.05;67.87
46392;BME280;32098;49.448;7.904;2024-02-28T12:09:06;98693.78;;;9.18;67.17
46392;BME280;32098;49.448;7.904;2024-02-28T12:11:36;98688.72;;;9.30;66.57
46392;BME280;32098;49.448;7.904;2024-02-28T12:14:07;98681.81;;;9.42;65.21
46392;BME280;32098;49.448;7.904;2024-02-28T12:16:37;98656.06;;;9.36;65.43
46392;BME280;32098;49.448;7.904;2024-02-28T12:19:11;98672.22;;;9.41;63.39
46392;BME280;32098;49.448;7.904;2024-02-28T12:21:38;98666.91;;;9.41;64.18
46392;BME280;32098;49.448;7.904;2024-02-28T12:24:09;98663.63;;;9.39;65.80
46392;BME280;32098;49.448;7.904;2024-02-28T12:26:40;98663.84;;;9.44;65.34
46392;BME280;32098;49.448;7.904;2024-02-28T12:29:07;98669.81;;;9.53;65.57
46392;BME280;32098;49.448;7.904;2024-02-28T12:31:34;98661.78;;;9.40;62.86
46392;BME280;32098;49.448;7.904;2024-02-28T12:34:00;98657.25;;;9.34;63.88
46392;BME280;32098;49.448;7.904;2024-02-28T12:36:27;98660.97;;;9.39;62.45
46392;BME280;32098;49.448;7.904;2024-02-28T12:38:54;98655.44;;;9.34;62.17
46392;BME280;32098;49.448;7.904;2024-02-28T12:41:21;98654.59;;;9.34;62.86
46392;BME280;32098;49.448;7.904;2024-02-28T12:43:48;98649.94;;;9.42;62.50
46392;BME280;32098;49.448;7.904;2024-02-28T12:46:14;98654.28;;;9.56;62.03
46392;BME280;32098;49.448;7.904;2024-02-28T12:48:41;98641.44;;;9.73;61.46
46392;BME280;32098;49.448;7.904;2024-02-28T12:51:11;98628.56;;;9.76;60.99
46392;BME280;32098;49.448;7.904;2024-02-28T12:53:38;98647.66;;;10.00;60.05
46392;BME280;32098;49.448;7.904;2024-02-28T12:56:04;98633.13;;;10.09;59.84
46392;BME280;32098;49.448;7.904;2024-02-28T12:58:31;98640.28;;;10.21;59.94
46392;BME280;32098;49.448;7.904;2024-02-28T13:00:58;98644.38;;;10.24;58.34
46392;BME280;32098;49.448;7.904;2024-02-28T13:03:25;98636.59;;;10.09;56.11
46392;BME280;32098;49.448;7.904;2024-02-28T13:05:52;98623.69;;;10.13;57.72
46392;BME280;32098;49.448;7.904;2024-02-28T13:08:18;98624.13;;;10.23;58.05
46392;BME280;32098;49.448;7.904;2024-02-28T13:10:47;98625.56;;;10.32;59.02
46392;BME280;32098;49.448;7.904;2024-02-28T13:13:13;98617.56;;;10.38;58.35
46392;BME280;32098;49.448;7.904;2024-02-28T13:15:40;98618.59;;;10.44;58.70